<?xml version="1.0" encoding="utf-8" standalone="yes"?>
<gpx version="1.1" creator="GPS Visualizer https://www.gpsvisualizer.com/" xmlns="http://www.topografix.com/GPX/1/1" xmlns:xsi="http://www.w3.org/2001/XMLSchema-instance" xsi:schemaLocation="http://www.topografix.com/GPX/1/1 http://www.topografix.com/GPX/1/1/gpx.xsd http://www.garmin.com/xmlschemas/TrackPointExtension/v2 http://www.garmin.com/xmlschemas/TrackPointExtensionv2.xsd http://www.garmin.com/xmlschemas/GpxExtensions/v3 http://www.garmin.com/xmlschemas/GpxExtensionsv3.xsd" xmlns:gpxtpx="http://www.garmin.com/xmlschemas/TrackPointExtension/v2" xmlns:gpxx="http://www.garmin.com/xmlschemas/GpxExtensions/v3">
<trk>
  <name>Wandering about</name>
  <trkseg>
    <trkpt lat="53.451123" lon="-6.157026">
      <ele>9.872</ele>
      <time>2025-09-19T11:19:19Z</time>
    </trkpt>
    <trkpt lat="53.451192" lon="-6.157015">
      <ele>9.126</ele>
      <time>2025-09-19T11:19:37Z</time>
    </trkpt>
    <trkpt lat="53.451177" lon="-6.157252">
      <ele>9.207</ele>
      <time>2025-09-19T11:19:48Z</time>
    </trkpt>
    <trkpt lat="53.451064" lon="-6.157458">
      <ele>9.49</ele>
      <time>2025-09-19T11:19:58Z</time>
    </trkpt>
    <trkpt lat="53.451028" lon="-6.157699">
      <ele>9.598</ele>
      <time>2025-09-19T11:20:10Z</time>
    </trkpt>
    <trkpt lat="53.451003" lon="-6.157933">
      <ele>9.902</ele>
      <time>2025-09-19T11:20:20Z</time>
    </trkpt>
    <trkpt lat="53.450952" lon="-6.158116">
      <ele>10.0</ele>
      <time>2025-09-19T11:20:30Z</time>
    </trkpt>
    <trkpt lat="53.450958" lon="-6.158319">
      <ele>10.0</ele>
      <time>2025-09-19T11:20:41Z</time>
    </trkpt>
    <trkpt lat="53.450886" lon="-6.158439">
      <ele>9.928</ele>
      <time>2025-09-19T11:20:54Z</time>
    </trkpt>
    <trkpt lat="53.450792" lon="-6.158581">
      <ele>10.149</ele>
      <time>2025-09-19T11:21:04Z</time>
    </trkpt>
    <trkpt lat="53.450615" lon="-6.158638">
      <ele>10.786</ele>
      <time>2025-09-19T11:21:15Z</time>
    </trkpt>
    <trkpt lat="53.450444" lon="-6.158626">
      <ele>11.803</ele>
      <time>2025-09-19T11:21:26Z</time>
    </trkpt>
    <trkpt lat="53.450327" lon="-6.158725">
      <ele>12.646</ele>
      <time>2025-09-19T11:21:37Z</time>
    </trkpt>
    <trkpt lat="53.450313" lon="-6.158964">
      <ele>12.781</ele>
      <time>2025-09-19T11:21:47Z</time>
    </trkpt>
    <trkpt lat="53.450212" lon="-6.159106">
      <ele>13.237</ele>
      <time>2025-09-19T11:21:58Z</time>
    </trkpt>
    <trkpt lat="53.450055" lon="-6.15903">
      <ele>13.802</ele>
      <time>2025-09-19T11:22:08Z</time>
    </trkpt>
    <trkpt lat="53.450061" lon="-6.15901">
      <ele>13.78</ele>
      <time>2025-09-19T11:22:28Z</time>
    </trkpt>
    <trkpt lat="53.44986" lon="-6.159547">
      <ele>14.69</ele>
      <time>2025-09-19T11:22:44Z</time>
    </trkpt>
    <trkpt lat="53.449855" lon="-6.159861">
      <ele>15.044</ele>
      <time>2025-09-19T11:22:55Z</time>
    </trkpt>
    <trkpt lat="53.449815" lon="-6.160069">
      <ele>15.249</ele>
      <time>2025-09-19T11:23:05Z</time>
    </trkpt>
    <trkpt lat="53.449766" lon="-6.160311">
      <ele>15.426</ele>
      <time>2025-09-19T11:23:16Z</time>
    </trkpt>
    <trkpt lat="53.449704" lon="-6.160607">
      <ele>14.88</ele>
      <time>2025-09-19T11:23:28Z</time>
    </trkpt>
    <trkpt lat="53.449691" lon="-6.160871">
      <ele>13.992</ele>
      <time>2025-09-19T11:23:39Z</time>
    </trkpt>
    <trkpt lat="53.44988" lon="-6.160911">
      <ele>12.743</ele>
      <time>2025-09-19T11:23:49Z</time>
    </trkpt>
    <trkpt lat="53.450015" lon="-6.160854">
      <ele>11.946</ele>
      <time>2025-09-19T11:24:00Z</time>
    </trkpt>
    <trkpt lat="53.450177" lon="-6.160847">
      <ele>11.363</ele>
      <time>2025-09-19T11:24:10Z</time>
    </trkpt>
    <trkpt lat="53.450354" lon="-6.160834">
      <ele>11.0</ele>
      <time>2025-09-19T11:24:21Z</time>
    </trkpt>
    <trkpt lat="53.450481" lon="-6.160806">
      <ele>10.928</ele>
      <time>2025-09-19T11:24:32Z</time>
    </trkpt>
    <trkpt lat="53.450724" lon="-6.160689">
      <ele>9.874</ele>
      <time>2025-09-19T11:24:49Z</time>
    </trkpt>
    <trkpt lat="53.450912" lon="-6.160547">
      <ele>8.717</ele>
      <time>2025-09-19T11:25:00Z</time>
    </trkpt>
    <trkpt lat="53.451053" lon="-6.16048">
      <ele>8.209</ele>
      <time>2025-09-19T11:25:11Z</time>
    </trkpt>
    <trkpt lat="53.451194" lon="-6.160407">
      <ele>7.702</ele>
      <time>2025-09-19T11:25:21Z</time>
    </trkpt>
    <trkpt lat="53.451363" lon="-6.160271">
      <ele>7.093</ele>
      <time>2025-09-19T11:25:32Z</time>
    </trkpt>
    <trkpt lat="53.451495" lon="-6.160234">
      <ele>6.618</ele>
      <time>2025-09-19T11:25:43Z</time>
    </trkpt>
    <trkpt lat="53.451652" lon="-6.160164">
      <ele>6.053</ele>
      <time>2025-09-19T11:25:54Z</time>
    </trkpt>
    <trkpt lat="53.451821" lon="-6.160078">
      <ele>4.889</ele>
      <time>2025-09-19T11:26:05Z</time>
    </trkpt>
    <trkpt lat="53.451986" lon="-6.159968">
      <ele>3.701</ele>
      <time>2025-09-19T11:26:17Z</time>
    </trkpt>
    <trkpt lat="53.452111" lon="-6.159869">
      <ele>2.801</ele>
      <time>2025-09-19T11:26:28Z</time>
    </trkpt>
    <trkpt lat="53.452269" lon="-6.159724">
      <ele>1.832</ele>
      <time>2025-09-19T11:26:39Z</time>
    </trkpt>
    <trkpt lat="53.452333" lon="-6.159442">
      <ele>1.601</ele>
      <time>2025-09-19T11:26:51Z</time>
    </trkpt>
    <trkpt lat="53.452379" lon="-6.159234">
      <ele>1.436</ele>
      <time>2025-09-19T11:27:02Z</time>
    </trkpt>
    <trkpt lat="53.452402" lon="-6.158974">
      <ele>1.353</ele>
      <time>2025-09-19T11:27:12Z</time>
    </trkpt>
    <trkpt lat="53.452442" lon="-6.158801">
      <ele>1.209</ele>
      <time>2025-09-19T11:28:33Z</time>
    </trkpt>
    <trkpt lat="53.452513" lon="-6.158609">
      <ele>1.0</ele>
      <time>2025-09-19T11:28:43Z</time>
    </trkpt>
    <trkpt lat="53.452485" lon="-6.158378">
      <ele>1.099</ele>
      <time>2025-09-19T11:28:54Z</time>
    </trkpt>
    <trkpt lat="53.452438" lon="-6.158158">
      <ele>1.446</ele>
      <time>2025-09-19T11:29:04Z</time>
    </trkpt>
    <trkpt lat="53.452429" lon="-6.157912">
      <ele>1.259</ele>
      <time>2025-09-19T11:29:15Z</time>
    </trkpt>
    <trkpt lat="53.452404" lon="-6.157678">
      <ele>1.382</ele>
      <time>2025-09-19T11:29:25Z</time>
    </trkpt>
    <trkpt lat="53.452389" lon="-6.157435">
      <ele>1.598</ele>
      <time>2025-09-19T11:29:36Z</time>
    </trkpt>
    <trkpt lat="53.452368" lon="-6.157211">
      <ele>1.922</ele>
      <time>2025-09-19T11:29:46Z</time>
    </trkpt>
    <trkpt lat="53.452289" lon="-6.157095">
      <ele>3.149</ele>
      <time>2025-09-19T11:29:57Z</time>
    </trkpt>
    <trkpt lat="53.452223" lon="-6.157194">
      <ele>3.989</ele>
      <time>2025-09-19T11:30:08Z</time>
    </trkpt>
    <trkpt lat="53.452208" lon="-6.157002">
      <ele>4.102</ele>
      <time>2025-09-19T11:30:19Z</time>
    </trkpt>
    <trkpt lat="53.452209" lon="-6.156774">
      <ele>4.709</ele>
      <time>2025-09-19T11:30:29Z</time>
    </trkpt>
    <trkpt lat="53.452183" lon="-6.156568">
      <ele>5.232</ele>
      <time>2025-09-19T11:30:40Z</time>
    </trkpt>
    <trkpt lat="53.452182" lon="-6.156354">
      <ele>5.019</ele>
      <time>2025-09-19T11:30:50Z</time>
    </trkpt>
    <trkpt lat="53.452141" lon="-6.156116">
      <ele>4.31</ele>
      <time>2025-09-19T11:31:01Z</time>
    </trkpt>
    <trkpt lat="53.452109" lon="-6.155861">
      <ele>4.408</ele>
      <time>2025-09-19T11:31:12Z</time>
    </trkpt>
    <trkpt lat="53.452116" lon="-6.155615">
      <ele>3.596</ele>
      <time>2025-09-19T11:31:23Z</time>
    </trkpt>
    <trkpt lat="53.452163" lon="-6.155402">
      <ele>3.213</ele>
      <time>2025-09-19T11:31:34Z</time>
    </trkpt>
    <trkpt lat="53.452145" lon="-6.155178">
      <ele>3.278</ele>
      <time>2025-09-19T11:31:44Z</time>
    </trkpt>
    <trkpt lat="53.452114" lon="-6.154882">
      <ele>3.39</ele>
      <time>2025-09-19T11:31:55Z</time>
    </trkpt>
    <trkpt lat="53.452132" lon="-6.154685">
      <ele>3.415</ele>
      <time>2025-09-19T11:32:05Z</time>
    </trkpt>
    <trkpt lat="53.452132" lon="-6.154433">
      <ele>4.0</ele>
      <time>2025-09-19T11:32:16Z</time>
    </trkpt>
    <trkpt lat="53.452178" lon="-6.154234">
      <ele>4.0</ele>
      <time>2025-09-19T11:32:27Z</time>
    </trkpt>
    <trkpt lat="53.452181" lon="-6.153988">
      <ele>3.452</ele>
      <time>2025-09-19T11:32:37Z</time>
    </trkpt>
    <trkpt lat="53.452295" lon="-6.154054">
      <ele>3.701</ele>
      <time>2025-09-19T11:32:54Z</time>
    </trkpt>
    <trkpt lat="53.452471" lon="-6.154087">
      <ele>3.97</ele>
      <time>2025-09-19T11:33:06Z</time>
    </trkpt>
    <trkpt lat="53.45263" lon="-6.154171">
      <ele>4.0</ele>
      <time>2025-09-19T11:33:17Z</time>
    </trkpt>
    <trkpt lat="53.45277" lon="-6.154064">
      <ele>4.359</ele>
      <time>2025-09-19T11:33:27Z</time>
    </trkpt>
    <trkpt lat="53.45291" lon="-6.154163">
      <ele>4.013</ele>
      <time>2025-09-19T11:33:38Z</time>
    </trkpt>
    <trkpt lat="53.45302" lon="-6.154348">
      <ele>4.0</ele>
      <time>2025-09-19T11:33:49Z</time>
    </trkpt>
    <trkpt lat="53.45307" lon="-6.154613">
      <ele>4.0</ele>
      <time>2025-09-19T11:34:00Z</time>
    </trkpt>
    <trkpt lat="53.453125" lon="-6.154842">
      <ele>4.0</ele>
      <time>2025-09-19T11:34:11Z</time>
    </trkpt>
    <trkpt lat="53.453231" lon="-6.155022">
      <ele>3.971</ele>
      <time>2025-09-19T11:34:22Z</time>
    </trkpt>
    <trkpt lat="53.453344" lon="-6.155183">
      <ele>4.013</ele>
      <time>2025-09-19T11:34:33Z</time>
    </trkpt>
    <trkpt lat="53.453474" lon="-6.155271">
      <ele>4.012</ele>
      <time>2025-09-19T11:34:43Z</time>
    </trkpt>
    <trkpt lat="53.453622" lon="-6.155296">
      <ele>4.0</ele>
      <time>2025-09-19T11:34:54Z</time>
    </trkpt>
    <trkpt lat="53.453742" lon="-6.1555">
      <ele>4.0</ele>
      <time>2025-09-19T11:35:05Z</time>
    </trkpt>
    <trkpt lat="53.453847" lon="-6.155648">
      <ele>3.385</ele>
      <time>2025-09-19T11:35:16Z</time>
    </trkpt>
    <trkpt lat="53.454001" lon="-6.155759">
      <ele>2.643</ele>
      <time>2025-09-19T11:35:27Z</time>
    </trkpt>
    <trkpt lat="53.454155" lon="-6.155683">
      <ele>3.601</ele>
      <time>2025-09-19T11:35:38Z</time>
    </trkpt>
    <trkpt lat="53.454308" lon="-6.155634">
      <ele>4.153</ele>
      <time>2025-09-19T11:35:49Z</time>
    </trkpt>
    <trkpt lat="53.454465" lon="-6.155633">
      <ele>4.11</ele>
      <time>2025-09-19T11:36:00Z</time>
    </trkpt>
    <trkpt lat="53.454613" lon="-6.155562">
      <ele>4.338</ele>
      <time>2025-09-19T11:36:11Z</time>
    </trkpt>
    <trkpt lat="53.454748" lon="-6.155497">
      <ele>3.814</ele>
      <time>2025-09-19T11:36:22Z</time>
    </trkpt>
    <trkpt lat="53.454877" lon="-6.155486">
      <ele>2.886</ele>
      <time>2025-09-19T11:36:32Z</time>
    </trkpt>
    <trkpt lat="53.455018" lon="-6.155468">
      <ele>2.0</ele>
      <time>2025-09-19T11:36:43Z</time>
    </trkpt>
    <trkpt lat="53.455174" lon="-6.155439">
      <ele>2.0</ele>
      <time>2025-09-19T11:36:54Z</time>
    </trkpt>
    <trkpt lat="53.455326" lon="-6.155427">
      <ele>2.08</ele>
      <time>2025-09-19T11:37:05Z</time>
    </trkpt>
    <trkpt lat="53.455449" lon="-6.155276">
      <ele>2.623</ele>
      <time>2025-09-19T11:37:16Z</time>
    </trkpt>
    <trkpt lat="53.455513" lon="-6.155105">
      <ele>3.469</ele>
      <time>2025-09-19T11:37:27Z</time>
    </trkpt>
    <trkpt lat="53.455571" lon="-6.15489">
      <ele>3.944</ele>
      <time>2025-09-19T11:37:38Z</time>
    </trkpt>
    <trkpt lat="53.45565" lon="-6.154655">
      <ele>3.5</ele>
      <time>2025-09-19T11:37:49Z</time>
    </trkpt>
    <trkpt lat="53.455677" lon="-6.154429">
      <ele>3.0</ele>
      <time>2025-09-19T11:38:00Z</time>
    </trkpt>
    <trkpt lat="53.455654" lon="-6.15422">
      <ele>3.0</ele>
      <time>2025-09-19T11:38:33Z</time>
    </trkpt>
    <trkpt lat="53.45562" lon="-6.153986">
      <ele>2.849</ele>
      <time>2025-09-19T11:38:44Z</time>
    </trkpt>
    <trkpt lat="53.455612" lon="-6.153992">
      <ele>2.872</ele>
      <time>2025-09-19T11:42:02Z</time>
    </trkpt>
    <trkpt lat="53.455492" lon="-6.154029">
      <ele>3.0</ele>
      <time>2025-09-19T11:43:01Z</time>
    </trkpt>
    <trkpt lat="53.455322" lon="-6.154048">
      <ele>3.0</ele>
      <time>2025-09-19T11:43:12Z</time>
    </trkpt>
    <trkpt lat="53.455169" lon="-6.154052">
      <ele>3.0</ele>
      <time>2025-09-19T11:43:23Z</time>
    </trkpt>
    <trkpt lat="53.455005" lon="-6.154017">
      <ele>3.0</ele>
      <time>2025-09-19T11:43:34Z</time>
    </trkpt>
    <trkpt lat="53.454865" lon="-6.154026">
      <ele>3.726</ele>
      <time>2025-09-19T11:43:44Z</time>
    </trkpt>
    <trkpt lat="53.454718" lon="-6.15398">
      <ele>4.343</ele>
      <time>2025-09-19T11:43:56Z</time>
    </trkpt>
    <trkpt lat="53.454562" lon="-6.153885">
      <ele>4.563</ele>
      <time>2025-09-19T11:44:06Z</time>
    </trkpt>
    <trkpt lat="53.454419" lon="-6.153847">
      <ele>4.849</ele>
      <time>2025-09-19T11:44:17Z</time>
    </trkpt>
    <trkpt lat="53.454269" lon="-6.153764">
      <ele>4.55</ele>
      <time>2025-09-19T11:44:27Z</time>
    </trkpt>
    <trkpt lat="53.454128" lon="-6.153663">
      <ele>4.187</ele>
      <time>2025-09-19T11:44:38Z</time>
    </trkpt>
    <trkpt lat="53.453996" lon="-6.153563">
      <ele>3.827</ele>
      <time>2025-09-19T11:44:49Z</time>
    </trkpt>
    <trkpt lat="53.453849" lon="-6.153445">
      <ele>3.546</ele>
      <time>2025-09-19T11:45:00Z</time>
    </trkpt>
    <trkpt lat="53.453705" lon="-6.153343">
      <ele>3.697</ele>
      <time>2025-09-19T11:45:11Z</time>
    </trkpt>
    <trkpt lat="53.453562" lon="-6.153251">
      <ele>3.704</ele>
      <time>2025-09-19T11:45:22Z</time>
    </trkpt>
    <trkpt lat="53.453441" lon="-6.153114">
      <ele>3.21</ele>
      <time>2025-09-19T11:45:32Z</time>
    </trkpt>
    <trkpt lat="53.453316" lon="-6.152941">
      <ele>2.588</ele>
      <time>2025-09-19T11:45:43Z</time>
    </trkpt>
    <trkpt lat="53.453186" lon="-6.152891">
      <ele>2.408</ele>
      <time>2025-09-19T11:45:54Z</time>
    </trkpt>
    <trkpt lat="53.453038" lon="-6.15285">
      <ele>2.26</ele>
      <time>2025-09-19T11:46:05Z</time>
    </trkpt>
    <trkpt lat="53.452897" lon="-6.15287">
      <ele>2.332</ele>
      <time>2025-09-19T11:46:16Z</time>
    </trkpt>
    <trkpt lat="53.45279" lon="-6.153037">
      <ele>2.933</ele>
      <time>2025-09-19T11:46:26Z</time>
    </trkpt>
    <trkpt lat="53.452654" lon="-6.153208">
      <ele>3.304</ele>
      <time>2025-09-19T11:46:38Z</time>
    </trkpt>
    <trkpt lat="53.452534" lon="-6.153359">
      <ele>3.215</ele>
      <time>2025-09-19T11:46:49Z</time>
    </trkpt>
    <trkpt lat="53.452412" lon="-6.153509">
      <ele>3.549</ele>
      <time>2025-09-19T11:47:00Z</time>
    </trkpt>
    <trkpt lat="53.4523" lon="-6.153688">
      <ele>3.28</ele>
      <time>2025-09-19T11:47:11Z</time>
    </trkpt>
    <trkpt lat="53.452157" lon="-6.153806">
      <ele>3.235</ele>
      <time>2025-09-19T11:47:21Z</time>
    </trkpt>
    <trkpt lat="53.452025" lon="-6.153818">
      <ele>3.71</ele>
      <time>2025-09-19T11:47:52Z</time>
    </trkpt>
    <trkpt lat="53.451859" lon="-6.153788">
      <ele>4.615</ele>
      <time>2025-09-19T11:48:03Z</time>
    </trkpt>
    <trkpt lat="53.451698" lon="-6.153783">
      <ele>5.774</ele>
      <time>2025-09-19T11:48:14Z</time>
    </trkpt>
    <trkpt lat="53.451549" lon="-6.153796">
      <ele>6.424</ele>
      <time>2025-09-19T11:48:25Z</time>
    </trkpt>
    <trkpt lat="53.45139" lon="-6.153738">
      <ele>6.996</ele>
      <time>2025-09-19T11:48:36Z</time>
    </trkpt>
    <trkpt lat="53.451263" lon="-6.153737">
      <ele>7.906</ele>
      <time>2025-09-19T11:48:46Z</time>
    </trkpt>
    <trkpt lat="53.451119" lon="-6.153685">
      <ele>8.943</ele>
      <time>2025-09-19T11:48:57Z</time>
    </trkpt>
    <trkpt lat="53.450979" lon="-6.15367">
      <ele>9.476</ele>
      <time>2025-09-19T11:49:07Z</time>
    </trkpt>
    <trkpt lat="53.450834" lon="-6.153741">
      <ele>9.998</ele>
      <time>2025-09-19T11:49:18Z</time>
    </trkpt>
    <trkpt lat="53.450751" lon="-6.153921">
      <ele>10.674</ele>
      <time>2025-09-19T11:49:29Z</time>
    </trkpt>
    <trkpt lat="53.45073" lon="-6.154137">
      <ele>11.305</ele>
      <time>2025-09-19T11:49:40Z</time>
    </trkpt>
    <trkpt lat="53.450694" lon="-6.15437">
      <ele>11.502</ele>
      <time>2025-09-19T11:49:50Z</time>
    </trkpt>
    <trkpt lat="53.450646" lon="-6.154597">
      <ele>12.045</ele>
      <time>2025-09-19T11:50:01Z</time>
    </trkpt>
    <trkpt lat="53.450646" lon="-6.154829">
      <ele>12.349</ele>
      <time>2025-09-19T11:50:11Z</time>
    </trkpt>
    <trkpt lat="53.450602" lon="-6.155008">
      <ele>12.694</ele>
      <time>2025-09-19T11:50:22Z</time>
    </trkpt>
    <trkpt lat="53.450568" lon="-6.155241">
      <ele>13.778</ele>
      <time>2025-09-19T11:50:33Z</time>
    </trkpt>
    <trkpt lat="53.450504" lon="-6.15548">
      <ele>14.0</ele>
      <time>2025-09-19T11:50:44Z</time>
    </trkpt>
    <trkpt lat="53.450462" lon="-6.155722">
      <ele>13.603</ele>
      <time>2025-09-19T11:50:55Z</time>
    </trkpt>
    <trkpt lat="53.450442" lon="-6.155957">
      <ele>13.409</ele>
      <time>2025-09-19T11:51:06Z</time>
    </trkpt>
    <trkpt lat="53.450418" lon="-6.156212">
      <ele>13.495</ele>
      <time>2025-09-19T11:51:18Z</time>
    </trkpt>
    <trkpt lat="53.450372" lon="-6.15641">
      <ele>13.661</ele>
      <time>2025-09-19T11:51:29Z</time>
    </trkpt>
    <trkpt lat="53.450331" lon="-6.156588">
      <ele>13.808</ele>
      <time>2025-09-19T11:51:39Z</time>
    </trkpt>
    <trkpt lat="53.450288" lon="-6.156819">
      <ele>13.983</ele>
      <time>2025-09-19T11:51:51Z</time>
    </trkpt>
    <trkpt lat="53.450355" lon="-6.156929">
      <ele>13.985</ele>
      <time>2025-09-19T11:52:23Z</time>
    </trkpt>
    <trkpt lat="53.450464" lon="-6.15693">
      <ele>13.965</ele>
      <time>2025-09-19T11:52:33Z</time>
    </trkpt>
    <trkpt lat="53.450588" lon="-6.157009">
      <ele>13.766</ele>
      <time>2025-09-19T11:52:43Z</time>
    </trkpt>
    <trkpt lat="53.45069" lon="-6.157083">
      <ele>13.032</ele>
      <time>2025-09-19T11:52:54Z</time>
    </trkpt>
    <trkpt lat="53.450778" lon="-6.157204">
      <ele>12.398</ele>
      <time>2025-09-19T11:53:09Z</time>
    </trkpt>
    <trkpt lat="53.450919" lon="-6.157217">
      <ele>11.383</ele>
      <time>2025-09-19T11:53:20Z</time>
    </trkpt>
    <trkpt lat="53.451057" lon="-6.157161">
      <ele>10.39</ele>
      <time>2025-09-19T11:53:31Z</time>
    </trkpt>
    <trkpt lat="53.45112" lon="-6.15726">
      <ele>9.772</ele>
      <time>2025-09-19T17:04:48Z</time>
    </trkpt>
    <trkpt lat="53.451064" lon="-6.157372">
      <ele>9.8</ele>
      <time>2025-09-19T17:05:00Z</time>
    </trkpt>
    <trkpt lat="53.451056" lon="-6.157562">
      <ele>9.397</ele>
      <time>2025-09-19T17:05:10Z</time>
    </trkpt>
    <trkpt lat="53.451006" lon="-6.157783">
      <ele>9.761</ele>
      <time>2025-09-19T17:05:21Z</time>
    </trkpt>
    <trkpt lat="53.450978" lon="-6.157954">
      <ele>9.985</ele>
      <time>2025-09-19T17:05:31Z</time>
    </trkpt>
    <trkpt lat="53.450925" lon="-6.158122">
      <ele>10.0</ele>
      <time>2025-09-19T17:05:42Z</time>
    </trkpt>
    <trkpt lat="53.450961" lon="-6.15834">
      <ele>9.989</ele>
      <time>2025-09-19T17:05:54Z</time>
    </trkpt>
    <trkpt lat="53.450884" lon="-6.158427">
      <ele>9.938</ele>
      <time>2025-09-19T17:06:07Z</time>
    </trkpt>
    <trkpt lat="53.45079" lon="-6.158467">
      <ele>10.156</ele>
      <time>2025-09-19T17:06:22Z</time>
    </trkpt>
    <trkpt lat="53.45057" lon="-6.158646">
      <ele>10.948</ele>
      <time>2025-09-19T17:06:33Z</time>
    </trkpt>
    <trkpt lat="53.450456" lon="-6.158644">
      <ele>11.717</ele>
      <time>2025-09-19T17:06:44Z</time>
    </trkpt>
    <trkpt lat="53.450341" lon="-6.158685">
      <ele>12.545</ele>
      <time>2025-09-19T17:06:55Z</time>
    </trkpt>
    <trkpt lat="53.450326" lon="-6.158893">
      <ele>12.655</ele>
      <time>2025-09-19T17:07:05Z</time>
    </trkpt>
    <trkpt lat="53.450253" lon="-6.159064">
      <ele>13.089</ele>
      <time>2025-09-19T17:07:15Z</time>
    </trkpt>
    <trkpt lat="53.45013" lon="-6.159079">
      <ele>13.532</ele>
      <time>2025-09-19T17:07:25Z</time>
    </trkpt>
    <trkpt lat="53.450041" lon="-6.158992">
      <ele>13.852</ele>
      <time>2025-09-19T17:07:46Z</time>
    </trkpt>
    <trkpt lat="53.450022" lon="-6.158722">
      <ele>13.921</ele>
      <time>2025-09-19T17:07:57Z</time>
    </trkpt>
    <trkpt lat="53.450056" lon="-6.158451">
      <ele>14.259</ele>
      <time>2025-09-19T17:08:07Z</time>
    </trkpt>
    <trkpt lat="53.449957" lon="-6.158505">
      <ele>14.323</ele>
      <time>2025-09-19T17:09:02Z</time>
    </trkpt>
    <trkpt lat="53.449827" lon="-6.158572">
      <ele>14.053</ele>
      <time>2025-09-19T17:09:13Z</time>
    </trkpt>
    <trkpt lat="53.449695" lon="-6.158597">
      <ele>14.196</ele>
      <time>2025-09-19T17:09:23Z</time>
    </trkpt>
    <trkpt lat="53.449558" lon="-6.15861">
      <ele>15.182</ele>
      <time>2025-09-19T17:09:34Z</time>
    </trkpt>
    <trkpt lat="53.449443" lon="-6.158592">
      <ele>16.01</ele>
      <time>2025-09-19T17:09:44Z</time>
    </trkpt>
    <trkpt lat="53.449306" lon="-6.158597">
      <ele>16.997</ele>
      <time>2025-09-19T17:09:55Z</time>
    </trkpt>
    <trkpt lat="53.449172" lon="-6.15855">
      <ele>17.962</ele>
      <time>2025-09-19T17:10:05Z</time>
    </trkpt>
    <trkpt lat="53.449018" lon="-6.158565">
      <ele>18.535</ele>
      <time>2025-09-19T17:10:16Z</time>
    </trkpt>
    <trkpt lat="53.448876" lon="-6.158592">
      <ele>19.0</ele>
      <time>2025-09-19T17:10:27Z</time>
    </trkpt>
    <trkpt lat="53.448761" lon="-6.158606">
      <ele>19.0</ele>
      <time>2025-09-19T17:10:38Z</time>
    </trkpt>
    <trkpt lat="53.448598" lon="-6.158582">
      <ele>19.042</ele>
      <time>2025-09-19T17:10:49Z</time>
    </trkpt>
    <trkpt lat="53.448446" lon="-6.158593">
      <ele>19.556</ele>
      <time>2025-09-19T17:11:00Z</time>
    </trkpt>
    <trkpt lat="53.448298" lon="-6.158638">
      <ele>20.127</ele>
      <time>2025-09-19T17:11:11Z</time>
    </trkpt>
    <trkpt lat="53.448167" lon="-6.158635">
      <ele>20.599</ele>
      <time>2025-09-19T17:11:22Z</time>
    </trkpt>
    <trkpt lat="53.448014" lon="-6.158644">
      <ele>21.0</ele>
      <time>2025-09-19T17:11:33Z</time>
    </trkpt>
    <trkpt lat="53.44789" lon="-6.158683">
      <ele>21.0</ele>
      <time>2025-09-19T17:11:43Z</time>
    </trkpt>
    <trkpt lat="53.447747" lon="-6.15871">
      <ele>21.0</ele>
      <time>2025-09-19T17:11:54Z</time>
    </trkpt>
    <trkpt lat="53.447611" lon="-6.158726">
      <ele>21.0</ele>
      <time>2025-09-19T17:12:05Z</time>
    </trkpt>
    <trkpt lat="53.447473" lon="-6.158753">
      <ele>21.0</ele>
      <time>2025-09-19T17:12:16Z</time>
    </trkpt>
    <trkpt lat="53.447321" lon="-6.158751">
      <ele>21.0</ele>
      <time>2025-09-19T17:12:27Z</time>
    </trkpt>
    <trkpt lat="53.447172" lon="-6.158758">
      <ele>21.0</ele>
      <time>2025-09-19T17:12:38Z</time>
    </trkpt>
    <trkpt lat="53.44712" lon="-6.158974">
      <ele>20.694</ele>
      <time>2025-09-19T17:12:49Z</time>
    </trkpt>
    <trkpt lat="53.44713" lon="-6.159248">
      <ele>19.804</ele>
      <time>2025-09-19T17:12:59Z</time>
    </trkpt>
    <trkpt lat="53.447155" lon="-6.1595">
      <ele>19.139</ele>
      <time>2025-09-19T17:13:10Z</time>
    </trkpt>
    <trkpt lat="53.447148" lon="-6.159748">
      <ele>18.802</ele>
      <time>2025-09-19T17:13:21Z</time>
    </trkpt>
    <trkpt lat="53.447115" lon="-6.159985">
      <ele>19.158</ele>
      <time>2025-09-19T17:13:31Z</time>
    </trkpt>
    <trkpt lat="53.447044" lon="-6.160181">
      <ele>19.273</ele>
      <time>2025-09-19T17:13:42Z</time>
    </trkpt>
    <trkpt lat="53.446957" lon="-6.160339">
      <ele>19.654</ele>
      <time>2025-09-19T17:13:52Z</time>
    </trkpt>
    <trkpt lat="53.446852" lon="-6.160461">
      <ele>19.893</ele>
      <time>2025-09-19T17:14:03Z</time>
    </trkpt>
    <trkpt lat="53.446802" lon="-6.160658">
      <ele>20.205</ele>
      <time>2025-09-19T17:14:13Z</time>
    </trkpt>
    <trkpt lat="53.446728" lon="-6.160834">
      <ele>20.779</ele>
      <time>2025-09-19T17:14:24Z</time>
    </trkpt>
    <trkpt lat="53.446666" lon="-6.161032">
      <ele>21.007</ele>
      <time>2025-09-19T17:14:34Z</time>
    </trkpt>
    <trkpt lat="53.446578" lon="-6.161218">
      <ele>21.958</ele>
      <time>2025-09-19T17:14:44Z</time>
    </trkpt>
    <trkpt lat="53.446489" lon="-6.161415">
      <ele>22.919</ele>
      <time>2025-09-19T17:14:55Z</time>
    </trkpt>
    <trkpt lat="53.4464" lon="-6.161561">
      <ele>23.88</ele>
      <time>2025-09-19T17:15:05Z</time>
    </trkpt>
    <trkpt lat="53.446421" lon="-6.161858">
      <ele>22.964</ele>
      <time>2025-09-19T17:15:16Z</time>
    </trkpt>
    <trkpt lat="53.446394" lon="-6.162097">
      <ele>22.945</ele>
      <time>2025-09-19T17:15:27Z</time>
    </trkpt>
    <trkpt lat="53.446373" lon="-6.162324">
      <ele>22.862</ele>
      <time>2025-09-19T17:15:37Z</time>
    </trkpt>
    <trkpt lat="53.446334" lon="-6.162544">
      <ele>22.632</ele>
      <time>2025-09-19T17:15:48Z</time>
    </trkpt>
    <trkpt lat="53.446341" lon="-6.162787">
      <ele>21.651</ele>
      <time>2025-09-19T17:15:59Z</time>
    </trkpt>
    <trkpt lat="53.446324" lon="-6.163034">
      <ele>20.797</ele>
      <time>2025-09-19T17:16:10Z</time>
    </trkpt>
    <trkpt lat="53.446309" lon="-6.163301">
      <ele>19.979</ele>
      <time>2025-09-19T17:16:20Z</time>
    </trkpt>
    <trkpt lat="53.44629" lon="-6.163524">
      <ele>19.824</ele>
      <time>2025-09-19T17:16:31Z</time>
    </trkpt>
    <trkpt lat="53.446286" lon="-6.163758">
      <ele>19.741</ele>
      <time>2025-09-19T17:16:42Z</time>
    </trkpt>
    <trkpt lat="53.446306" lon="-6.164024">
      <ele>19.597</ele>
      <time>2025-09-19T17:16:53Z</time>
    </trkpt>
    <trkpt lat="53.44629" lon="-6.164246">
      <ele>19.712</ele>
      <time>2025-09-19T17:17:04Z</time>
    </trkpt>
    <trkpt lat="53.44629" lon="-6.164441">
      <ele>19.712</ele>
      <time>2025-09-19T17:17:15Z</time>
    </trkpt>
    <trkpt lat="53.446303" lon="-6.164621">
      <ele>19.618</ele>
      <time>2025-09-19T17:17:27Z</time>
    </trkpt>
    <trkpt lat="53.446274" lon="-6.164971">
      <ele>19.827</ele>
      <time>2025-09-19T17:17:38Z</time>
    </trkpt>
    <trkpt lat="53.446299" lon="-6.165221">
      <ele>19.39</ele>
      <time>2025-09-19T17:17:48Z</time>
    </trkpt>
    <trkpt lat="53.446196" lon="-6.165393">
      <ele>19.694</ele>
      <time>2025-09-19T17:17:59Z</time>
    </trkpt>
    <trkpt lat="53.446101" lon="-6.16551">
      <ele>20.042</ele>
      <time>2025-09-19T17:18:10Z</time>
    </trkpt>
    <trkpt lat="53.446004" lon="-6.165727">
      <ele>20.148</ele>
      <time>2025-09-19T17:18:21Z</time>
    </trkpt>
    <trkpt lat="53.445907" lon="-6.165915">
      <ele>20.0</ele>
      <time>2025-09-19T17:18:31Z</time>
    </trkpt>
    <trkpt lat="53.445803" lon="-6.166092">
      <ele>20.109</ele>
      <time>2025-09-19T17:18:42Z</time>
    </trkpt>
    <trkpt lat="53.445713" lon="-6.16627">
      <ele>21.577</ele>
      <time>2025-09-19T17:18:53Z</time>
    </trkpt>
    <trkpt lat="53.44561" lon="-6.166438">
      <ele>22.981</ele>
      <time>2025-09-19T17:19:04Z</time>
    </trkpt>
    <trkpt lat="53.445558" lon="-6.166651">
      <ele>23.935</ele>
      <time>2025-09-19T17:19:15Z</time>
    </trkpt>
    <trkpt lat="53.445504" lon="-6.166878">
      <ele>25.566</ele>
      <time>2025-09-19T17:19:25Z</time>
    </trkpt>
    <trkpt lat="53.445452" lon="-6.167062">
      <ele>26.423</ele>
      <time>2025-09-19T17:19:36Z</time>
    </trkpt>
    <trkpt lat="53.445388" lon="-6.167337">
      <ele>26.751</ele>
      <time>2025-09-19T17:19:47Z</time>
    </trkpt>
    <trkpt lat="53.445357" lon="-6.167545">
      <ele>26.285</ele>
      <time>2025-09-19T17:20:02Z</time>
    </trkpt>
    <trkpt lat="53.445353" lon="-6.167697">
      <ele>26.271</ele>
      <time>2025-09-19T17:20:43Z</time>
    </trkpt>
    <trkpt lat="53.445317" lon="-6.167957">
      <ele>26.232</ele>
      <time>2025-09-19T17:20:54Z</time>
    </trkpt>
    <trkpt lat="53.445263" lon="-6.168176">
      <ele>25.894</ele>
      <time>2025-09-19T17:21:04Z</time>
    </trkpt>
    <trkpt lat="53.445185" lon="-6.168343">
      <ele>25.344</ele>
      <time>2025-09-19T17:21:15Z</time>
    </trkpt>
    <trkpt lat="53.445041" lon="-6.168413">
      <ele>24.54</ele>
      <time>2025-09-19T17:21:39Z</time>
    </trkpt>
    <trkpt lat="53.444901" lon="-6.168498">
      <ele>24.738</ele>
      <time>2025-09-19T17:21:50Z</time>
    </trkpt>
    <trkpt lat="53.444761" lon="-6.168503">
      <ele>24.946</ele>
      <time>2025-09-19T17:22:01Z</time>
    </trkpt>
    <trkpt lat="53.444642" lon="-6.168518">
      <ele>25.289</ele>
      <time>2025-09-19T17:22:12Z</time>
    </trkpt>
    <trkpt lat="53.444541" lon="-6.168383">
      <ele>25.652</ele>
      <time>2025-09-19T17:22:23Z</time>
    </trkpt>
    <trkpt lat="53.444463" lon="-6.168274">
      <ele>25.919</ele>
      <time>2025-09-19T17:22:34Z</time>
    </trkpt>
    <trkpt lat="53.444325" lon="-6.168339">
      <ele>26.0</ele>
      <time>2025-09-19T17:22:44Z</time>
    </trkpt>
    <trkpt lat="53.444203" lon="-6.168378">
      <ele>26.0</ele>
      <time>2025-09-19T17:22:55Z</time>
    </trkpt>
    <trkpt lat="53.44406" lon="-6.168436">
      <ele>24.99</ele>
      <time>2025-09-19T17:23:06Z</time>
    </trkpt>
    <trkpt lat="53.443922" lon="-6.168452">
      <ele>23.734</ele>
      <time>2025-09-19T17:23:17Z</time>
    </trkpt>
    <trkpt lat="53.443797" lon="-6.168486">
      <ele>22.888</ele>
      <time>2025-09-19T17:23:28Z</time>
    </trkpt>
    <trkpt lat="53.443663" lon="-6.168506">
      <ele>21.995</ele>
      <time>2025-09-19T17:23:39Z</time>
    </trkpt>
    <trkpt lat="53.443517" lon="-6.168559">
      <ele>21.812</ele>
      <time>2025-09-19T17:23:50Z</time>
    </trkpt>
    <trkpt lat="53.443351" lon="-6.16861">
      <ele>21.996</ele>
      <time>2025-09-19T17:24:01Z</time>
    </trkpt>
    <trkpt lat="53.443202" lon="-6.168653">
      <ele>21.598</ele>
      <time>2025-09-19T17:24:12Z</time>
    </trkpt>
    <trkpt lat="53.443087" lon="-6.168623">
      <ele>21.151</ele>
      <time>2025-09-19T17:24:22Z</time>
    </trkpt>
    <trkpt lat="53.442957" lon="-6.168688">
      <ele>21.179</ele>
      <time>2025-09-19T17:24:33Z</time>
    </trkpt>
    <trkpt lat="53.442821" lon="-6.168742">
      <ele>21.073</ele>
      <time>2025-09-19T17:24:44Z</time>
    </trkpt>
    <trkpt lat="53.442686" lon="-6.168772">
      <ele>20.339</ele>
      <time>2025-09-19T17:24:55Z</time>
    </trkpt>
    <trkpt lat="53.442544" lon="-6.168852">
      <ele>19.317</ele>
      <time>2025-09-19T17:25:06Z</time>
    </trkpt>
    <trkpt lat="53.442411" lon="-6.169007">
      <ele>17.325</ele>
      <time>2025-09-19T17:25:17Z</time>
    </trkpt>
    <trkpt lat="53.442342" lon="-6.169236">
      <ele>15.613</ele>
      <time>2025-09-19T17:25:28Z</time>
    </trkpt>
    <trkpt lat="53.442308" lon="-6.16948">
      <ele>14.578</ele>
      <time>2025-09-19T17:25:39Z</time>
    </trkpt>
    <trkpt lat="53.442279" lon="-6.169719">
      <ele>14.207</ele>
      <time>2025-09-19T17:25:50Z</time>
    </trkpt>
    <trkpt lat="53.44225" lon="-6.169957">
      <ele>14.015</ele>
      <time>2025-09-19T17:26:01Z</time>
    </trkpt>
    <trkpt lat="53.44223" lon="-6.170185">
      <ele>14.019</ele>
      <time>2025-09-19T17:26:11Z</time>
    </trkpt>
    <trkpt lat="53.442209" lon="-6.170407">
      <ele>14.048</ele>
      <time>2025-09-19T17:26:22Z</time>
    </trkpt>
    <trkpt lat="53.44219" lon="-6.170614">
      <ele>13.906</ele>
      <time>2025-09-19T17:26:33Z</time>
    </trkpt>
    <trkpt lat="53.442129" lon="-6.170829">
      <ele>13.351</ele>
      <time>2025-09-19T17:26:44Z</time>
    </trkpt>
    <trkpt lat="53.442016" lon="-6.170983">
      <ele>13.604</ele>
      <time>2025-09-19T17:26:55Z</time>
    </trkpt>
    <trkpt lat="53.44188" lon="-6.171092">
      <ele>14.696</ele>
      <time>2025-09-19T17:27:06Z</time>
    </trkpt>
    <trkpt lat="53.441769" lon="-6.171193">
      <ele>16.081</ele>
      <time>2025-09-19T17:27:17Z</time>
    </trkpt>
    <trkpt lat="53.441654" lon="-6.171259">
      <ele>17.554</ele>
      <time>2025-09-19T17:27:28Z</time>
    </trkpt>
    <trkpt lat="53.441524" lon="-6.171257">
      <ele>17.769</ele>
      <time>2025-09-19T17:27:38Z</time>
    </trkpt>
    <trkpt lat="53.441452" lon="-6.171167">
      <ele>17.819</ele>
      <time>2025-09-19T17:27:49Z</time>
    </trkpt>
    <trkpt lat="53.441426" lon="-6.170998">
      <ele>17.866</ele>
      <time>2025-09-19T17:28:02Z</time>
    </trkpt>
    <trkpt lat="53.441339" lon="-6.170903">
      <ele>17.82</ele>
      <time>2025-09-19T17:28:14Z</time>
    </trkpt>
    <trkpt lat="53.441242" lon="-6.17086">
      <ele>17.471</ele>
      <time>2025-09-19T17:28:26Z</time>
    </trkpt>
    <trkpt lat="53.441122" lon="-6.170711">
      <ele>17.039</ele>
      <time>2025-09-19T17:28:37Z</time>
    </trkpt>
    <trkpt lat="53.441025" lon="-6.170636">
      <ele>16.47</ele>
      <time>2025-09-19T17:28:47Z</time>
    </trkpt>
    <trkpt lat="53.440915" lon="-6.170671">
      <ele>15.881</ele>
      <time>2025-09-19T17:28:59Z</time>
    </trkpt>
    <trkpt lat="53.4408" lon="-6.170553">
      <ele>14.639</ele>
      <time>2025-09-19T17:29:14Z</time>
    </trkpt>
    <trkpt lat="53.440687" lon="-6.1704">
      <ele>13.125</ele>
      <time>2025-09-19T17:29:25Z</time>
    </trkpt>
    <trkpt lat="53.440576" lon="-6.170305">
      <ele>11.385</ele>
      <time>2025-09-19T17:29:35Z</time>
    </trkpt>
    <trkpt lat="53.440521" lon="-6.170147">
      <ele>10.463</ele>
      <time>2025-09-19T17:29:47Z</time>
    </trkpt>
    <trkpt lat="53.440396" lon="-6.170139">
      <ele>10.213</ele>
      <time>2025-09-19T17:29:57Z</time>
    </trkpt>
    <trkpt lat="53.440274" lon="-6.170132">
      <ele>10.021</ele>
      <time>2025-09-19T17:30:08Z</time>
    </trkpt>
    <trkpt lat="53.440144" lon="-6.170127">
      <ele>10.743</ele>
      <time>2025-09-19T17:30:18Z</time>
    </trkpt>
    <trkpt lat="53.440021" lon="-6.170106">
      <ele>11.496</ele>
      <time>2025-09-19T17:30:29Z</time>
    </trkpt>
    <trkpt lat="53.439897" lon="-6.170082">
      <ele>11.334</ele>
      <time>2025-09-19T17:30:39Z</time>
    </trkpt>
    <trkpt lat="53.439773" lon="-6.170035">
      <ele>11.057</ele>
      <time>2025-09-19T17:30:49Z</time>
    </trkpt>
    <trkpt lat="53.43965" lon="-6.169987">
      <ele>10.74</ele>
      <time>2025-09-19T17:30:59Z</time>
    </trkpt>
    <trkpt lat="53.439651" lon="-6.169776">
      <ele>10.744</ele>
      <time>2025-09-19T17:31:10Z</time>
    </trkpt>
    <trkpt lat="53.439661" lon="-6.16959">
      <ele>10.885</ele>
      <time>2025-09-19T17:31:20Z</time>
    </trkpt>
    <trkpt lat="53.439668" lon="-6.169396">
      <ele>11.0</ele>
      <time>2025-09-19T17:31:31Z</time>
    </trkpt>
    <trkpt lat="53.439697" lon="-6.1692">
      <ele>11.0</ele>
      <time>2025-09-19T17:31:41Z</time>
    </trkpt>
    <trkpt lat="53.439721" lon="-6.168991">
      <ele>11.0</ele>
      <time>2025-09-19T17:31:52Z</time>
    </trkpt>
    <trkpt lat="53.439734" lon="-6.168806">
      <ele>11.0</ele>
      <time>2025-09-19T17:32:03Z</time>
    </trkpt>
    <trkpt lat="53.439728" lon="-6.168596">
      <ele>11.054</ele>
      <time>2025-09-19T17:32:13Z</time>
    </trkpt>
    <trkpt lat="53.439753" lon="-6.168385">
      <ele>11.814</ele>
      <time>2025-09-19T17:32:24Z</time>
    </trkpt>
    <trkpt lat="53.439748" lon="-6.168184">
      <ele>12.0</ele>
      <time>2025-09-19T17:32:34Z</time>
    </trkpt>
    <trkpt lat="53.439774" lon="-6.167968">
      <ele>12.198</ele>
      <time>2025-09-19T17:32:44Z</time>
    </trkpt>
    <trkpt lat="53.43982" lon="-6.167797">
      <ele>12.276</ele>
      <time>2025-09-19T17:32:55Z</time>
    </trkpt>
    <trkpt lat="53.439838" lon="-6.167587">
      <ele>12.166</ele>
      <time>2025-09-19T17:33:05Z</time>
    </trkpt>
    <trkpt lat="53.439888" lon="-6.167399">
      <ele>12.17</ele>
      <time>2025-09-19T17:33:16Z</time>
    </trkpt>
    <trkpt lat="53.43995" lon="-6.167208">
      <ele>12.36</ele>
      <time>2025-09-19T17:33:38Z</time>
    </trkpt>
    <trkpt lat="53.439991" lon="-6.167027">
      <ele>12.065</ele>
      <time>2025-09-19T17:33:49Z</time>
    </trkpt>
    <trkpt lat="53.440017" lon="-6.166815">
      <ele>12.376</ele>
      <time>2025-09-19T17:34:00Z</time>
    </trkpt>
    <trkpt lat="53.439962" lon="-6.166647">
      <ele>13.335</ele>
      <time>2025-09-19T17:34:11Z</time>
    </trkpt>
    <trkpt lat="53.44" lon="-6.166391">
      <ele>13.992</ele>
      <time>2025-09-19T17:34:22Z</time>
    </trkpt>
    <trkpt lat="53.440001" lon="-6.166171">
      <ele>14.78</ele>
      <time>2025-09-19T17:34:33Z</time>
    </trkpt>
    <trkpt lat="53.439985" lon="-6.165931">
      <ele>15.054</ele>
      <time>2025-09-19T17:34:43Z</time>
    </trkpt>
    <trkpt lat="53.440039" lon="-6.165741">
      <ele>14.906</ele>
      <time>2025-09-19T17:34:54Z</time>
    </trkpt>
    <trkpt lat="53.440073" lon="-6.165523">
      <ele>15.0</ele>
      <time>2025-09-19T17:35:05Z</time>
    </trkpt>
    <trkpt lat="53.440105" lon="-6.165291">
      <ele>15.0</ele>
      <time>2025-09-19T17:35:16Z</time>
    </trkpt>
    <trkpt lat="53.440195" lon="-6.165127">
      <ele>15.543</ele>
      <time>2025-09-19T17:35:26Z</time>
    </trkpt>
    <trkpt lat="53.440261" lon="-6.164938">
      <ele>16.0</ele>
      <time>2025-09-19T17:35:36Z</time>
    </trkpt>
    <trkpt lat="53.440366" lon="-6.164856">
      <ele>15.682</ele>
      <time>2025-09-19T17:35:47Z</time>
    </trkpt>
    <trkpt lat="53.440407" lon="-6.164654">
      <ele>15.403</ele>
      <time>2025-09-19T17:35:57Z</time>
    </trkpt>
    <trkpt lat="53.440391" lon="-6.16443">
      <ele>15.0</ele>
      <time>2025-09-19T17:36:07Z</time>
    </trkpt>
    <trkpt lat="53.440353" lon="-6.164216">
      <ele>15.0</ele>
      <time>2025-09-19T17:36:18Z</time>
    </trkpt>
    <trkpt lat="53.440302" lon="-6.164012">
      <ele>14.492</ele>
      <time>2025-09-19T17:36:28Z</time>
    </trkpt>
    <trkpt lat="53.440248" lon="-6.163844">
      <ele>14.107</ele>
      <time>2025-09-19T17:36:38Z</time>
    </trkpt>
    <trkpt lat="53.440202" lon="-6.163641">
      <ele>14.273</ele>
      <time>2025-09-19T17:36:48Z</time>
    </trkpt>
    <trkpt lat="53.440246" lon="-6.163491">
      <ele>14.497</ele>
      <time>2025-09-19T17:37:07Z</time>
    </trkpt>
    <trkpt lat="53.44032" lon="-6.163048">
      <ele>15.875</ele>
      <time>2025-09-19T17:37:23Z</time>
    </trkpt>
    <trkpt lat="53.440395" lon="-6.162827">
      <ele>16.401</ele>
      <time>2025-09-19T17:37:34Z</time>
    </trkpt>
    <trkpt lat="53.440455" lon="-6.162674">
      <ele>16.6</ele>
      <time>2025-09-19T17:37:45Z</time>
    </trkpt>
    <trkpt lat="53.440547" lon="-6.162361">
      <ele>17.485</ele>
      <time>2025-09-19T17:37:56Z</time>
    </trkpt>
    <trkpt lat="53.440576" lon="-6.162135">
      <ele>17.926</ele>
      <time>2025-09-19T17:38:06Z</time>
    </trkpt>
    <trkpt lat="53.440728" lon="-6.161769">
      <ele>17.771</ele>
      <time>2025-09-19T17:38:26Z</time>
    </trkpt>
    <trkpt lat="53.440762" lon="-6.161629">
      <ele>18.0</ele>
      <time>2025-09-19T17:38:38Z</time>
    </trkpt>
    <trkpt lat="53.440831" lon="-6.161395">
      <ele>18.0</ele>
      <time>2025-09-19T17:38:49Z</time>
    </trkpt>
    <trkpt lat="53.44095" lon="-6.161173">
      <ele>18.357</ele>
      <time>2025-09-19T17:38:59Z</time>
    </trkpt>
    <trkpt lat="53.441042" lon="-6.160951">
      <ele>18.249</ele>
      <time>2025-09-19T17:39:10Z</time>
    </trkpt>
    <trkpt lat="53.441093" lon="-6.160786">
      <ele>18.224</ele>
      <time>2025-09-19T17:39:22Z</time>
    </trkpt>
    <trkpt lat="53.441235" lon="-6.160546">
      <ele>19.015</ele>
      <time>2025-09-19T17:39:38Z</time>
    </trkpt>
    <trkpt lat="53.441303" lon="-6.160389">
      <ele>19.414</ele>
      <time>2025-09-19T17:39:48Z</time>
    </trkpt>
    <trkpt lat="53.441371" lon="-6.16024">
      <ele>20.199</ele>
      <time>2025-09-19T17:40:02Z</time>
    </trkpt>
    <trkpt lat="53.441421" lon="-6.16">
      <ele>22.0</ele>
      <time>2025-09-19T17:40:17Z</time>
    </trkpt>
    <trkpt lat="53.44155" lon="-6.159752">
      <ele>22.0</ele>
      <time>2025-09-19T17:40:27Z</time>
    </trkpt>
    <trkpt lat="53.441628" lon="-6.159584">
      <ele>22.0</ele>
      <time>2025-09-19T17:40:39Z</time>
    </trkpt>
    <trkpt lat="53.441704" lon="-6.15936">
      <ele>21.772</ele>
      <time>2025-09-19T17:40:50Z</time>
    </trkpt>
    <trkpt lat="53.441834" lon="-6.159142">
      <ele>21.451</ele>
      <time>2025-09-19T17:41:00Z</time>
    </trkpt>
    <trkpt lat="53.441897" lon="-6.158965">
      <ele>21.773</ele>
      <time>2025-09-19T17:41:10Z</time>
    </trkpt>
    <trkpt lat="53.441925" lon="-6.158789">
      <ele>22.0</ele>
      <time>2025-09-19T17:41:21Z</time>
    </trkpt>
    <trkpt lat="53.442063" lon="-6.158616">
      <ele>21.566</ele>
      <time>2025-09-19T17:41:37Z</time>
    </trkpt>
    <trkpt lat="53.442139" lon="-6.158346">
      <ele>22.922</ele>
      <time>2025-09-19T17:41:58Z</time>
    </trkpt>
    <trkpt lat="53.442197" lon="-6.158229">
      <ele>23.0</ele>
      <time>2025-09-19T17:42:13Z</time>
    </trkpt>
    <trkpt lat="53.442338" lon="-6.1581">
      <ele>22.933</ele>
      <time>2025-09-19T17:42:23Z</time>
    </trkpt>
    <trkpt lat="53.442478" lon="-6.15802">
      <ele>23.118</ele>
      <time>2025-09-19T17:42:33Z</time>
    </trkpt>
    <trkpt lat="53.442609" lon="-6.157871">
      <ele>23.664</ele>
      <time>2025-09-19T17:42:43Z</time>
    </trkpt>
    <trkpt lat="53.442758" lon="-6.157739">
      <ele>23.99</ele>
      <time>2025-09-19T17:42:53Z</time>
    </trkpt>
    <trkpt lat="53.442899" lon="-6.157636">
      <ele>24.214</ele>
      <time>2025-09-19T17:43:04Z</time>
    </trkpt>
    <trkpt lat="53.443103" lon="-6.15766">
      <ele>24.747</ele>
      <time>2025-09-19T17:43:15Z</time>
    </trkpt>
    <trkpt lat="53.443266" lon="-6.157729">
      <ele>25.582</ele>
      <time>2025-09-19T17:43:26Z</time>
    </trkpt>
    <trkpt lat="53.443387" lon="-6.157786">
      <ele>26.357</ele>
      <time>2025-09-19T17:43:37Z</time>
    </trkpt>
    <trkpt lat="53.443506" lon="-6.157836">
      <ele>27.034</ele>
      <time>2025-09-19T17:43:47Z</time>
    </trkpt>
    <trkpt lat="53.443603" lon="-6.157899">
      <ele>27.505</ele>
      <time>2025-09-19T17:43:58Z</time>
    </trkpt>
    <trkpt lat="53.443768" lon="-6.157954">
      <ele>28.289</ele>
      <time>2025-09-19T17:44:09Z</time>
    </trkpt>
    <trkpt lat="53.443897" lon="-6.158014">
      <ele>29.025</ele>
      <time>2025-09-19T17:44:20Z</time>
    </trkpt>
    <trkpt lat="53.444012" lon="-6.158111">
      <ele>29.443</ele>
      <time>2025-09-19T17:44:31Z</time>
    </trkpt>
    <trkpt lat="53.444169" lon="-6.158093">
      <ele>30.002</ele>
      <time>2025-09-19T17:44:42Z</time>
    </trkpt>
    <trkpt lat="53.44433" lon="-6.157919">
      <ele>29.219</ele>
      <time>2025-09-19T17:44:53Z</time>
    </trkpt>
    <trkpt lat="53.444431" lon="-6.157813">
      <ele>28.296</ele>
      <time>2025-09-19T17:45:04Z</time>
    </trkpt>
    <trkpt lat="53.44455" lon="-6.157838">
      <ele>28.516</ele>
      <time>2025-09-19T17:45:14Z</time>
    </trkpt>
    <trkpt lat="53.444648" lon="-6.157881">
      <ele>29.016</ele>
      <time>2025-09-19T17:45:26Z</time>
    </trkpt>
    <trkpt lat="53.444744" lon="-6.157937">
      <ele>29.765</ele>
      <time>2025-09-19T17:45:37Z</time>
    </trkpt>
    <trkpt lat="53.444839" lon="-6.15798">
      <ele>30.49</ele>
      <time>2025-09-19T17:45:49Z</time>
    </trkpt>
    <trkpt lat="53.445086" lon="-6.158029">
      <ele>30.998</ele>
      <time>2025-09-19T17:46:05Z</time>
    </trkpt>
    <trkpt lat="53.445215" lon="-6.158051">
      <ele>30.386</ele>
      <time>2025-09-19T17:46:15Z</time>
    </trkpt>
    <trkpt lat="53.445327" lon="-6.158059">
      <ele>29.685</ele>
      <time>2025-09-19T17:46:26Z</time>
    </trkpt>
    <trkpt lat="53.445489" lon="-6.158073">
      <ele>28.715</ele>
      <time>2025-09-19T17:46:37Z</time>
    </trkpt>
    <trkpt lat="53.445634" lon="-6.158101">
      <ele>28.28</ele>
      <time>2025-09-19T17:46:48Z</time>
    </trkpt>
    <trkpt lat="53.445772" lon="-6.158145">
      <ele>28.007</ele>
      <time>2025-09-19T17:46:59Z</time>
    </trkpt>
    <trkpt lat="53.445974" lon="-6.158165">
      <ele>26.576</ele>
      <time>2025-09-19T17:47:09Z</time>
    </trkpt>
    <trkpt lat="53.446083" lon="-6.15818">
      <ele>25.696</ele>
      <time>2025-09-19T17:47:20Z</time>
    </trkpt>
    <trkpt lat="53.446213" lon="-6.158151">
      <ele>24.243</ele>
      <time>2025-09-19T17:47:30Z</time>
    </trkpt>
    <trkpt lat="53.44635" lon="-6.158183">
      <ele>22.879</ele>
      <time>2025-09-19T17:47:41Z</time>
    </trkpt>
    <trkpt lat="53.446467" lon="-6.158372">
      <ele>22.056</ele>
      <time>2025-09-19T17:47:52Z</time>
    </trkpt>
    <trkpt lat="53.446576" lon="-6.158502">
      <ele>20.781</ele>
      <time>2025-09-19T17:48:02Z</time>
    </trkpt>
    <trkpt lat="53.446705" lon="-6.158578">
      <ele>20.122</ele>
      <time>2025-09-19T17:48:13Z</time>
    </trkpt>
    <trkpt lat="53.446831" lon="-6.15863">
      <ele>20.592</ele>
      <time>2025-09-19T17:48:23Z</time>
    </trkpt>
    <trkpt lat="53.446944" lon="-6.158659">
      <ele>20.998</ele>
      <time>2025-09-19T17:48:33Z</time>
    </trkpt>
    <trkpt lat="53.447058" lon="-6.158756">
      <ele>21.0</ele>
      <time>2025-09-19T17:48:44Z</time>
    </trkpt>
    <trkpt lat="53.447164" lon="-6.158808">
      <ele>21.0</ele>
      <time>2025-09-19T17:48:55Z</time>
    </trkpt>
    <trkpt lat="53.447301" lon="-6.158832">
      <ele>21.0</ele>
      <time>2025-09-19T17:49:06Z</time>
    </trkpt>
    <trkpt lat="53.447434" lon="-6.1588">
      <ele>21.0</ele>
      <time>2025-09-19T17:49:17Z</time>
    </trkpt>
    <trkpt lat="53.447546" lon="-6.15876">
      <ele>21.0</ele>
      <time>2025-09-19T17:49:27Z</time>
    </trkpt>
    <trkpt lat="53.447678" lon="-6.158744">
      <ele>21.0</ele>
      <time>2025-09-19T17:49:37Z</time>
    </trkpt>
    <trkpt lat="53.44784" lon="-6.158723">
      <ele>21.0</ele>
      <time>2025-09-19T17:49:48Z</time>
    </trkpt>
    <trkpt lat="53.447983" lon="-6.158719">
      <ele>21.0</ele>
      <time>2025-09-19T17:49:59Z</time>
    </trkpt>
    <trkpt lat="53.448123" lon="-6.158675">
      <ele>20.757</ele>
      <time>2025-09-19T17:50:10Z</time>
    </trkpt>
    <trkpt lat="53.448247" lon="-6.158725">
      <ele>20.311</ele>
      <time>2025-09-19T17:50:20Z</time>
    </trkpt>
    <trkpt lat="53.448375" lon="-6.158718">
      <ele>19.85</ele>
      <time>2025-09-19T17:50:31Z</time>
    </trkpt>
    <trkpt lat="53.448497" lon="-6.158692">
      <ele>19.411</ele>
      <time>2025-09-19T17:50:41Z</time>
    </trkpt>
    <trkpt lat="53.448615" lon="-6.158635">
      <ele>19.0</ele>
      <time>2025-09-19T17:50:52Z</time>
    </trkpt>
    <trkpt lat="53.448766" lon="-6.158636">
      <ele>19.0</ele>
      <time>2025-09-19T17:51:02Z</time>
    </trkpt>
    <trkpt lat="53.448903" lon="-6.158661">
      <ele>18.949</ele>
      <time>2025-09-19T17:51:13Z</time>
    </trkpt>
    <trkpt lat="53.449026" lon="-6.158667">
      <ele>18.506</ele>
      <time>2025-09-19T17:51:23Z</time>
    </trkpt>
    <trkpt lat="53.449141" lon="-6.158682">
      <ele>18.092</ele>
      <time>2025-09-19T17:51:33Z</time>
    </trkpt>
    <trkpt lat="53.449259" lon="-6.158673">
      <ele>17.335</ele>
      <time>2025-09-19T17:51:44Z</time>
    </trkpt>
    <trkpt lat="53.44939" lon="-6.158694">
      <ele>16.392</ele>
      <time>2025-09-19T17:51:54Z</time>
    </trkpt>
    <trkpt lat="53.449534" lon="-6.15866">
      <ele>15.355</ele>
      <time>2025-09-19T17:52:04Z</time>
    </trkpt>
    <trkpt lat="53.449656" lon="-6.158641">
      <ele>14.477</ele>
      <time>2025-09-19T17:52:14Z</time>
    </trkpt>
    <trkpt lat="53.449771" lon="-6.15864">
      <ele>14.0</ele>
      <time>2025-09-19T17:52:24Z</time>
    </trkpt>
    <trkpt lat="53.449902" lon="-6.158627">
      <ele>14.0</ele>
      <time>2025-09-19T17:52:34Z</time>
    </trkpt>
    <trkpt lat="53.450017" lon="-6.158548">
      <ele>14.152</ele>
      <time>2025-09-19T17:52:45Z</time>
    </trkpt>
    <trkpt lat="53.45002" lon="-6.158737">
      <ele>13.928</ele>
      <time>2025-09-19T17:52:55Z</time>
    </trkpt>
    <trkpt lat="53.449983" lon="-6.158953">
      <ele>14.014</ele>
      <time>2025-09-19T17:53:06Z</time>
    </trkpt>
    <trkpt lat="53.450048" lon="-6.159048">
      <ele>13.827</ele>
      <time>2025-09-19T17:53:32Z</time>
    </trkpt>
    <trkpt lat="53.450158" lon="-6.159087">
      <ele>13.431</ele>
      <time>2025-09-19T17:53:55Z</time>
    </trkpt>
    <trkpt lat="53.450296" lon="-6.158984">
      <ele>12.891</ele>
      <time>2025-09-19T17:54:06Z</time>
    </trkpt>
    <trkpt lat="53.450345" lon="-6.158744">
      <ele>12.516</ele>
      <time>2025-09-19T17:54:16Z</time>
    </trkpt>
    <trkpt lat="53.450432" lon="-6.15866">
      <ele>11.89</ele>
      <time>2025-09-19T17:54:27Z</time>
    </trkpt>
    <trkpt lat="53.45056" lon="-6.158719">
      <ele>10.984</ele>
      <time>2025-09-19T17:54:37Z</time>
    </trkpt>
    <trkpt lat="53.450679" lon="-6.158682">
      <ele>10.556</ele>
      <time>2025-09-19T17:54:48Z</time>
    </trkpt>
    <trkpt lat="53.450799" lon="-6.158645">
      <ele>10.124</ele>
      <time>2025-09-19T17:54:58Z</time>
    </trkpt>
    <trkpt lat="53.450882" lon="-6.158476">
      <ele>9.91</ele>
      <time>2025-09-19T17:55:09Z</time>
    </trkpt>
    <trkpt lat="53.450965" lon="-6.158368">
      <ele>9.941</ele>
      <time>2025-09-19T17:55:20Z</time>
    </trkpt>
    <trkpt lat="53.450934" lon="-6.158135">
      <ele>10.0</ele>
      <time>2025-09-19T17:55:31Z</time>
    </trkpt>
    <trkpt lat="53.451016" lon="-6.157952">
      <ele>9.882</ele>
      <time>2025-09-19T17:55:42Z</time>
    </trkpt>
    <trkpt lat="53.451076" lon="-6.15776">
      <ele>9.253</ele>
      <time>2025-09-19T17:55:52Z</time>
    </trkpt>
    <trkpt lat="53.451059" lon="-6.157521">
      <ele>9.375</ele>
      <time>2025-09-19T17:56:02Z</time>
    </trkpt>
    <trkpt lat="53.451055" lon="-6.157305">
      <ele>10.106</ele>
      <time>2025-09-19T17:56:13Z</time>
    </trkpt>
    <trkpt lat="53.451045" lon="-6.157085">
      <ele>10.476</ele>
      <time>2025-09-19T17:56:23Z</time>
    </trkpt>
    <trkpt lat="53.451038" lon="-6.157008">
      <ele>10.526</ele>
      <time>2025-09-19T17:56:32Z</time>
    </trkpt>
  </trkseg>
</trk>
</gpx>
